Time;durP1;ratioP1;P1;durP2;ratioP2;P2;SDS_P1;SDS_P2;PMS_P1;PMS_P2;Temp;Humidity;BMP_temperature;BMP_pressure;BME280_temperature;BME280_humidity;BME280_pressure;Samples;Min_cycle;Max_cycle;Signal;HPM_P1;HPM_P2
2022/02/18 00:00:56;;;;;;;7.72;2.13;;;5.60;99.90;;;;;;2120382;27;20059;-70
2022/02/18 00:01:58;;;;;;;9.05;2.40;;;5.60;99.90;;;;;;2123084;27;20031;-70
2022/02/18 00:02:58;;;;;;;7.85;2.25;;;5.60;99.90;;;;;;2119585;27;20514;-70
2022/02/18 00:04:02;;;;;;;7.03;2.50;;;5.60;99.90;;;;;;2122733;27;20084;-70
2022/02/18 00:05:06;;;;;;;7.82;2.30;;;5.60;99.90;;;;;;2114800;27;20032;-71
2022/02/18 00:06:07;;;;;;;7.95;2.08;;;5.60;99.90;;;;;;2115246;28;20457;-70
2022/02/18 00:07:08;;;;;;;5.65;2.40;;;5.60;99.90;;;;;;2110187;28;20032;-70
2022/02/18 00:08:09;;;;;;;6.63;2.20;;;5.60;99.90;;;;;;2115160;27;20057;-70
2022/02/18 00:09:10;;;;;;;8.35;2.30;;;5.60;99.90;;;;;;2117790;27;20041;-70
2022/02/18 00:10:11;;;;;;;6.45;2.20;;;5.60;99.90;;;;;;2116131;27;20038;-70
2022/02/18 00:11:12;;;;;;;7.07;2.28;;;5.60;99.90;;;;;;2124666;27;20081;-70
2022/02/18 00:12:13;;;;;;;6.95;2.30;;;5.60;99.90;;;;;;2123923;27;20412;-70
2022/02/18 00:13:13;;;;;;;5.47;2.20;;;5.50;99.90;;;;;;2123852;27;20028;-70
2022/02/18 00:14:15;;;;;;;6.50;2.03;;;5.50;99.90;;;;;;2123157;27;20029;-70
2022/02/18 00:15:17;;;;;;;7.43;2.10;;;5.60;99.90;;;;;;2122694;27;20419;-70
2022/02/18 00:16:18;;;;;;;6.03;1.92;;;5.60;99.90;;;;;;2114490;28;20096;-70
2022/02/18 00:17:19;;;;;;;6.90;2.22;;;5.60;99.90;;;;;;2101659;28;20050;-72
2022/02/18 00:18:20;;;;;;;5.90;1.90;;;5.60;99.90;;;;;;2108110;28;20020;-72
2022/02/18 00:19:21;;;;;;;6.05;2.00;;;5.60;99.90;;;;;;2119433;27;20028;-72
2022/02/18 00:20:21;;;;;;;7.97;2.15;;;5.60;99.90;;;;;;2123217;27;20123;-72
2022/02/18 00:21:22;;;;;;;5.05;2.00;;;5.60;99.90;;;;;;2109959;28;20028;-72
2022/02/18 00:22:24;;;;;;;6.13;2.10;;;5.50;99.90;;;;;;2117211;27;20417;-70
2022/02/18 00:23:25;;;;;;;6.18;1.80;;;5.60;99.90;;;;;;2118579;27;20015;-70
2022/02/18 00:24:25;;;;;;;6.53;1.80;;;5.50;99.90;;;;;;2122958;27;20027;-71
2022/02/18 00:25:27;;;;;;;5.47;1.90;;;5.50;99.90;;;;;;2119105;27;20058;-71
2022/02/18 00:26:32;;;;;;;7.30;2.10;;;5.50;99.90;;;;;;2123095;27;20019;-70
2022/02/18 00:27:32;;;;;;;5.88;2.05;;;5.40;99.90;;;;;;2118101;27;20022;-70
2022/02/18 00:28:33;;;;;;;9.73;2.25;;;5.50;99.90;;;;;;2113315;28;20016;-71
2022/02/18 00:29:37;;;;;;;5.60;2.05;;;5.40;99.90;;;;;;2105674;28;20524;-70
2022/02/18 00:30:37;;;;;;;8.57;2.00;;;5.40;99.90;;;;;;2113226;28;20024;-70
2022/02/18 00:31:38;;;;;;;6.70;2.00;;;5.40;99.90;;;;;;2119123;27;20027;-73
2022/02/18 00:32:41;;;;;;;4.30;1.80;;;5.50;99.90;;;;;;2122819;27;20016;-71
2022/02/18 00:33:42;;;;;;;6.47;2.25;;;5.40;99.90;;;;;;2122205;27;20039;-72
2022/02/18 00:34:44;;;;;;;7.65;2.40;;;5.50;99.90;;;;;;2113783;28;20028;-71
2022/02/18 00:35:45;;;;;;;5.63;1.90;;;5.50;99.90;;;;;;2105540;28;20023;-70
2022/02/18 00:36:47;;;;;;;6.60;2.03;;;5.50;99.90;;;;;;2114161;27;20066;-71
2022/02/18 00:37:49;;;;;;;5.70;1.70;;;5.40;99.90;;;;;;2122477;27;20019;-71
2022/02/18 00:38:49;;;;;;;6.10;1.80;;;5.50;99.90;;;;;;2121931;27;20575;-72
2022/02/18 00:39:50;;;;;;;7.28;2.28;;;5.40;99.90;;;;;;2114270;28;20030;-70
2022/02/18 00:40:51;;;;;;;6.97;2.00;;;5.40;99.90;;;;;;2114351;28;20422;-71
2022/02/18 00:41:53;;;;;;;7.80;1.80;;;5.40;99.90;;;;;;2114028;28;20032;-71
2022/02/18 00:42:54;;;;;;;7.00;1.95;;;5.50;99.90;;;;;;2122783;27;20150;-71
2022/02/18 00:43:55;;;;;;;10.15;2.28;;;5.50;99.90;;;;;;2114387;28;20138;-72
2022/02/18 00:44:56;;;;;;;6.07;2.05;;;5.40;99.90;;;;;;2122828;27;20035;-71
2022/02/18 00:45:56;;;;;;;5.85;1.92;;;5.40;99.90;;;;;;2122313;27;20530;-71
2022/02/18 00:46:57;;;;;;;6.70;2.00;;;5.50;99.90;;;;;;2122207;27;20034;-71
2022/02/18 00:47:58;;;;;;;8.20;2.17;;;5.50;99.90;;;;;;2122273;27;20038;-71
2022/02/18 00:48:59;;;;;;;7.05;2.00;;;5.50;99.90;;;;;;2113155;28;20020;-71
2022/02/18 00:50:00;;;;;;;8.07;2.08;;;5.50;99.90;;;;;;2114014;28;20055;-70
2022/02/18 00:51:00;;;;;;;7.10;1.77;;;5.40;99.90;;;;;;2123146;27;20047;-71
2022/02/18 00:52:02;;;;;;;4.65;1.80;;;5.50;99.90;;;;;;2113666;28;20024;-70
2022/02/18 00:53:02;;;;;;;5.35;1.90;;;5.40;99.90;;;;;;2113910;28;20138;-71
2022/02/18 00:54:03;;;;;;;10.32;1.98;;;5.40;99.90;;;;;;2122288;27;20039;-71
2022/02/18 00:55:05;;;;;;;4.97;1.67;;;5.40;99.90;;;;;;2113680;28;20117;-71
2022/02/18 00:56:09;;;;;;;7.10;1.98;;;5.40;99.90;;;;;;2114334;27;20046;-70
2022/02/18 00:57:10;;;;;;;4.85;1.90;;;5.40;99.90;;;;;;2123025;27;20031;-70
2022/02/18 00:58:11;;;;;;;7.53;2.00;;;5.40;99.90;;;;;;2122320;27;20034;-70
2022/02/18 00:59:12;;;;;;;6.47;1.88;;;5.40;99.90;;;;;;2122306;27;20394;-70
2022/02/18 01:00:15;;;;;;;8.15;2.10;;;5.40;99.90;;;;;;2122619;27;20031;-70
2022/02/18 01:01:15;;;;;;;7.38;1.90;;;5.40;99.90;;;;;;2113800;28;20028;-71
2022/02/18 01:02:16;;;;;;;8.07;2.00;;;5.40;99.90;;;;;;2113543;28;20062;-71
2022/02/18 01:03:18;;;;;;;7.22;1.90;;;5.40;99.90;;;;;;2122208;27;20030;-70
2022/02/18 01:04:19;;;;;;;5.25;1.65;;;5.40;99.90;;;;;;2113611;28;20020;-70
2022/02/18 01:05:19;;;;;;;7.20;1.88;;;5.40;99.90;;;;;;2122223;27;20114;-70
2022/02/18 01:06:21;;;;;;;8.35;1.80;;;5.40;99.90;;;;;;2122670;27;20084;-71
2022/02/18 01:07:23;;;;;;;6.22;1.52;;;5.40;99.90;;;;;;2122786;27;20517;-70
2022/02/18 01:08:24;;;;;;;7.60;1.80;;;5.40;99.90;;;;;;2121649;27;20058;-71
2022/02/18 01:09:25;;;;;;;6.47;1.58;;;5.40;99.90;;;;;;2113740;28;20024;-70
2022/02/18 01:10:25;;;;;;;5.85;1.50;;;5.40;99.90;;;;;;2122107;27;20039;-71
2022/02/18 01:11:26;;;;;;;4.78;1.60;;;5.50;99.90;;;;;;2122174;27;20019;-70
2022/02/18 01:12:27;;;;;;;4.95;1.60;;;5.40;99.90;;;;;;2122795;27;20027;-70
2022/02/18 01:13:28;;;;;;;7.22;1.90;;;5.40;99.90;;;;;;2113643;28;20028;-70
2022/02/18 01:14:28;;;;;;;7.05;1.83;;;5.40;99.90;;;;;;2113419;28;20050;-71
2022/02/18 01:15:29;;;;;;;7.85;1.77;;;5.40;99.90;;;;;;2113623;28;20046;-71
2022/02/18 01:16:30;;;;;;;6.57;1.80;;;5.40;99.90;;;;;;2113411;28;20043;-70
2022/02/18 01:17:32;;;;;;;4.53;1.70;;;5.40;99.90;;;;;;2122111;27;20527;-70
2022/02/18 01:18:33;;;;;;;6.93;1.70;;;5.40;99.20;;;;;;2123276;27;20061;-70
2022/02/18 01:19:34;;;;;;;8.32;1.77;;;5.50;99.90;;;;;;2123076;27;20557;-70
2022/02/18 01:20:37;;;;;;;6.00;1.50;;;5.40;99.90;;;;;;2123352;27;20019;-70
2022/02/18 01:21:38;;;;;;;4.35;1.65;;;5.50;99.90;;;;;;2123134;27;20054;-70
2022/02/18 01:22:40;;;;;;;7.25;1.95;;;5.50;99.10;;;;;;2123112;27;20038;-70
2022/02/18 01:23:41;;;;;;;5.50;1.70;;;5.50;99.50;;;;;;2123496;27;20445;-70
2022/02/18 01:24:41;;;;;;;5.93;1.77;;;5.50;99.10;;;;;;2123352;27;20027;-70
2022/02/18 01:25:43;;;;;;;7.60;1.80;;;5.50;99.20;;;;;;2115125;28;20069;-70
2022/02/18 01:26:45;;;;;;;5.15;1.50;;;5.60;98.60;;;;;;2107011;28;20086;-70
2022/02/18 01:27:46;;;;;;;6.32;1.83;;;5.60;98.60;;;;;;2115286;27;20561;-70
2022/02/18 01:28:47;;;;;;;7.28;1.60;;;5.60;99.40;;;;;;2123592;27;20064;-70
2022/02/18 01:29:48;;;;;;;7.15;1.70;;;5.60;99.20;;;;;;2124018;27;20019;-70
2022/02/18 01:30:48;;;;;;;5.20;1.63;;;5.60;98.90;;;;;;2124187;27;20023;-70
2022/02/18 01:31:49;;;;;;;8.43;1.88;;;5.60;98.90;;;;;;2122606;27;20065;-70
2022/02/18 01:32:51;;;;;;;6.03;1.70;;;5.70;98.40;;;;;;2123681;27;20101;-70
2022/02/18 01:33:56;;;;;;;3.72;1.27;;;5.70;97.50;;;;;;2123964;27;20347;-70
2022/02/18 01:34:58;;;;;;;9.93;1.90;;;5.70;97.80;;;;;;2124801;27;20490;-70
2022/02/18 01:35:59;;;;;;;5.18;1.60;;;5.70;98.80;;;;;;2124736;27;20038;-70
2022/02/18 01:36:59;;;;;;;3.17;1.40;;;5.70;98.10;;;;;;2123506;27;20390;-70
2022/02/18 01:38:02;;;;;;;6.13;1.70;;;5.70;97.00;;;;;;2114503;28;20112;-70
2022/02/18 01:39:03;;;;;;;6.13;1.73;;;5.70;97.10;;;;;;2114376;28;20441;-70
2022/02/18 01:40:05;;;;;;;6.68;1.83;;;5.60;97.10;;;;;;2123259;27;20035;-70
2022/02/18 01:41:11;;;;;;;5.07;1.50;;;5.60;98.00;;;;;;2124117;27;20370;-70
2022/02/18 01:42:12;;;;;;;6.40;1.85;;;5.60;98.40;;;;;;2123477;27;20020;-70
2022/02/18 01:43:13;;;;;;;5.97;1.90;;;5.60;97.10;;;;;;2114551;28;20131;-70
2022/02/18 01:44:38;;;;;;;6.68;1.60;;;5.60;96.70;;;;;;2114532;28;20860;-70
2022/02/18 01:45:40;;;;;;;6.20;1.60;;;5.70;97.60;;;;;;2122889;27;20522;-70
2022/02/18 01:46:41;;;;;;;4.05;1.60;;;5.70;96.30;;;;;;2114649;28;20103;-70
2022/02/18 01:47:42;;;;;;;5.95;1.60;;;5.80;96.40;;;;;;2105993;28;20024;-70
2022/02/18 01:48:43;;;;;;;5.75;1.70;;;5.80;95.60;;;;;;2105648;28;20023;-70
2022/02/18 01:49:45;;;;;;;6.45;1.60;;;5.80;95.90;;;;;;2122712;27;20451;-71
2022/02/18 01:50:45;;;;;;;6.60;1.60;;;5.80;96.90;;;;;;2123313;27;20015;-71
2022/02/18 01:51:46;;;;;;;6.20;1.48;;;5.90;96.70;;;;;;2123023;27;20034;-71
2022/02/18 01:52:52;;;;;;;6.32;1.70;;;5.90;96.10;;;;;;2123318;27;20153;-70
2022/02/18 01:53:54;;;;;;;4.82;1.40;;;5.90;95.70;;;;;;2122613;27;20023;-70
2022/02/18 01:54:54;;;;;;;4.95;1.50;;;6.00;94.80;;;;;;2123020;27;20023;-70
2022/02/18 01:55:55;;;;;;;5.97;1.50;;;6.00;95.50;;;;;;2123513;27;20022;-71
2022/02/18 01:56:56;;;;;;;6.63;1.45;;;6.00;95.80;;;;;;2123444;27;20018;-71
2022/02/18 01:57:59;;;;;;;6.03;1.52;;;6.00;96.50;;;;;;2123241;27;20058;-70
2022/02/18 01:59:00;;;;;;;4.50;1.60;;;6.00;95.80;;;;;;2122000;27;20436;-71
2022/02/18 02:00:01;;;;;;;9.10;1.95;;;6.00;96.50;;;;;;2122505;27;20064;-70
2022/02/18 02:01:02;;;;;;;5.78;1.50;;;6.00;96.90;;;;;;2122540;27;20019;-71
2022/02/18 02:02:04;;;;;;;5.47;1.50;;;6.00;96.70;;;;;;2123471;27;20551;-70
2022/02/18 02:03:05;;;;;;;5.25;1.77;;;6.10;96.60;;;;;;2123100;27;20079;-70
2022/02/18 02:04:11;;;;;;;5.28;1.50;;;6.10;97.00;;;;;;2122827;27;20419;-70
2022/02/18 02:05:12;;;;;;;4.60;1.50;;;6.10;97.10;;;;;;2122723;27;20031;-70
2022/02/18 02:06:15;;;;;;;7.30;1.70;;;6.10;97.30;;;;;;2122558;27;20083;-70
2022/02/18 02:07:17;;;;;;;4.55;1.50;;;6.10;96.80;;;;;;2113967;28;20088;-71
2022/02/18 02:08:17;;;;;;;6.68;1.50;;;6.10;96.30;;;;;;2113727;28;20073;-70
2022/02/18 02:09:23;;;;;;;4.45;1.60;;;6.20;97.40;;;;;;2114322;28;20031;-69
2022/02/18 02:10:24;;;;;;;5.30;1.40;;;6.20;97.00;;;;;;2105593;28;20408;-71
2022/02/18 02:11:26;;;;;;;6.40;1.70;;;6.20;98.00;;;;;;2114762;28;20110;-71
2022/02/18 02:12:27;;;;;;;6.15;1.70;;;6.20;97.70;;;;;;2123000;27;20034;-70
2022/02/18 02:13:32;;;;;;;5.15;1.70;;;6.20;96.50;;;;;;2122980;27;20056;-71
2022/02/18 02:14:35;;;;;;;7.85;1.88;;;6.20;97.50;;;;;;2115149;28;20035;-70
2022/02/18 02:15:36;;;;;;;3.90;1.58;;;6.20;98.50;;;;;;2122722;27;20023;-71
2022/02/18 02:16:37;;;;;;;6.57;1.65;;;6.20;97.40;;;;;;2113607;28;20027;-71
2022/02/18 02:17:37;;;;;;;7.60;1.65;;;6.20;98.00;;;;;;2114001;28;20124;-70
2022/02/18 02:18:38;;;;;;;6.88;1.70;;;6.30;98.90;;;;;;2113570;28;20127;-71
2022/02/18 02:19:39;;;;;;;6.57;1.65;;;6.30;98.70;;;;;;2113935;28;20031;-70
2022/02/18 02:20:41;;;;;;;7.75;1.65;;;6.30;98.90;;;;;;2113951;28;20024;-71
2022/02/18 02:21:51;;;;;;;5.43;1.70;;;6.30;98.30;;;;;;2113702;28;20027;-71
2022/02/18 02:22:53;;;;;;;7.20;1.85;;;6.30;99.90;;;;;;2113760;28;20036;-70
2022/02/18 02:23:54;;;;;;;5.40;1.80;;;6.30;99.00;;;;;;2114126;28;20087;-70
2022/02/18 02:25:01;;;;;;;7.38;1.90;;;6.30;98.70;;;;;;2122628;28;20047;-70
2022/02/18 02:26:12;;;;;;;3.85;1.50;;;6.40;99.50;;;;;;2113538;28;20537;-70
2022/02/18 02:27:14;;;;;;;7.22;1.95;;;6.40;99.60;;;;;;2108063;27;20024;-70
2022/02/18 02:28:15;;;;;;;4.38;1.60;;;6.40;99.10;;;;;;2113352;28;20015;-71
2022/02/18 02:29:17;;;;;;;6.28;1.90;;;6.40;99.90;;;;;;2105340;28;20113;-71
2022/02/18 02:30:21;;;;;;;6.00;1.90;;;6.40;99.90;;;;;;2113720;28;20111;-70
2022/02/18 02:31:26;;;;;;;7.85;1.90;;;6.30;99.90;;;;;;2114663;28;20805;-71
2022/02/18 02:32:29;;;;;;;10.52;2.00;;;6.40;99.90;;;;;;2122845;28;20023;-71
2022/02/18 02:33:29;;;;;;;6.72;2.00;;;6.30;99.90;;;;;;2123086;27;20042;-70
2022/02/18 02:34:33;;;;;;;6.18;1.67;;;6.30;99.90;;;;;;2122127;27;20051;-70
2022/02/18 02:35:35;;;;;;;6.53;2.00;;;6.30;99.90;;;;;;2114298;28;20024;-70
2022/02/18 02:36:36;;;;;;;4.50;1.60;;;6.30;99.90;;;;;;2122493;28;20065;-71
2022/02/18 02:37:37;;;;;;;5.35;1.67;;;6.30;99.90;;;;;;2122464;28;20031;-70
2022/02/18 02:38:48;;;;;;;5.53;1.80;;;6.30;99.90;;;;;;2114630;28;20028;-71
2022/02/18 02:39:49;;;;;;;6.43;1.80;;;6.30;99.90;;;;;;2122265;28;20157;-71
2022/02/18 02:40:57;;;;;;;6.80;1.80;;;6.30;99.90;;;;;;2121817;27;20027;-70
2022/02/18 02:42:02;;;;;;;4.20;1.63;;;6.30;99.90;;;;;;2121499;28;20443;-70
2022/02/18 02:43:04;;;;;;;6.10;1.77;;;6.30;99.90;;;;;;2121633;28;20575;-70
2022/02/18 02:44:05;;;;;;;5.75;1.85;;;6.30;99.90;;;;;;2113155;28;20039;-70
2022/02/18 02:45:06;;;;;;;7.18;1.83;;;6.30;99.90;;;;;;2112858;28;20508;-70
2022/02/18 02:46:06;;;;;;;6.63;1.98;;;6.30;99.90;;;;;;2104654;28;20111;-70
2022/02/18 02:47:07;;;;;;;9.73;2.15;;;6.30;99.90;;;;;;2104775;28;20025;-70
2022/02/18 02:48:09;;;;;;;7.95;1.90;;;6.30;99.90;;;;;;2104636;28;20423;-70
2022/02/18 02:49:30;;;;;;;6.15;1.85;;;6.30;99.90;;;;;;2121228;28;20035;-70
2022/02/18 02:50:31;;;;;;;6.03;1.90;;;6.30;99.90;;;;;;2113176;28;20044;-70
2022/02/18 02:51:38;;;;;;;4.82;1.70;;;6.30;99.90;;;;;;2113493;28;20063;-70
2022/02/18 02:52:39;;;;;;;7.57;2.20;;;6.30;99.90;;;;;;2104786;28;20435;-70
2022/02/18 02:53:43;;;;;;;7.15;2.20;;;6.30;99.90;;;;;;2113696;28;20510;-70
2022/02/18 02:54:43;;;;;;;5.22;1.75;;;6.30;99.90;;;;;;2121406;27;20035;-70
2022/02/18 02:55:46;;;;;;;6.10;2.00;;;6.30;99.90;;;;;;2113369;28;20058;-69
2022/02/18 02:56:48;;;;;;;7.65;2.10;;;6.30;99.90;;;;;;2121320;27;20034;-70
2022/02/18 02:58:02;;;;;;;5.63;1.90;;;6.30;99.90;;;;;;2114913;28;20031;-70
2022/02/18 02:59:02;;;;;;;8.35;2.15;;;6.30;99.90;;;;;;2112520;28;20028;-70
2022/02/18 03:00:13;;;;;;;4.55;1.70;;;6.30;99.90;;;;;;2121428;28;20054;-70
2022/02/18 03:01:15;;;;;;;6.00;1.83;;;6.30;99.90;;;;;;2113404;28;20024;-69
2022/02/18 03:02:22;;;;;;;4.85;1.80;;;6.30;99.90;;;;;;2114028;28;20055;-69
2022/02/18 03:03:23;;;;;;;7.03;1.88;;;6.30;99.90;;;;;;2121598;28;20030;-70
2022/02/18 03:04:31;;;;;;;7.78;1.85;;;6.30;99.90;;;;;;2121525;28;20031;-70
2022/02/18 03:05:33;;;;;;;5.18;1.80;;;6.30;99.90;;;;;;2113057;28;20024;-70
2022/02/18 03:06:37;;;;;;;6.47;1.92;;;6.30;99.90;;;;;;2121416;27;20027;-70
2022/02/18 03:07:41;;;;;;;6.93;1.67;;;6.30;99.90;;;;;;2113375;28;20026;-70
2022/02/18 03:08:51;;;;;;;4.05;1.77;;;6.20;99.90;;;;;;2113791;28;20072;-70
2022/02/18 03:10:05;;;;;;;6.57;1.80;;;6.30;99.90;;;;;;2122256;27;20514;-70
2022/02/18 03:11:15;;;;;;;4.13;1.58;;;6.30;99.90;;;;;;2114922;27;20118;-70
2022/02/18 03:12:24;;;;;;;6.50;1.65;;;6.20;99.90;;;;;;2117017;27;20024;-71
2022/02/18 03:13:28;;;;;;;4.90;1.60;;;6.20;99.90;;;;;;2122946;27;20019;-71
2022/02/18 03:14:29;;;;;;;5.85;1.90;;;6.20;99.90;;;;;;2123078;27;20027;-71
2022/02/18 03:15:38;;;;;;;5.22;1.60;;;6.20;99.90;;;;;;2115573;27;20396;-71
2022/02/18 03:16:46;;;;;;;6.00;1.85;;;6.20;99.90;;;;;;2123174;27;20026;-71
2022/02/18 03:17:47;;;;;;;5.68;1.70;;;6.20;99.90;;;;;;2115092;28;20125;-71
2022/02/18 03:18:53;;;;;;;5.53;1.80;;;6.20;99.90;;;;;;2115021;27;20024;-72
2022/02/18 03:19:54;;;;;;;4.90;1.67;;;6.20;99.90;;;;;;2106362;28;20490;-72
2022/02/18 03:21:08;;;;;;;5.05;1.70;;;6.20;99.90;;;;;;2109856;27;20437;-71
2022/02/18 03:22:08;;;;;;;4.38;1.70;;;6.20;99.90;;;;;;2114460;28;20061;-71
2022/02/18 03:23:09;;;;;;;5.65;1.80;;;6.20;99.90;;;;;;2114432;28;20115;-71
2022/02/18 03:24:10;;;;;;;5.38;1.73;;;6.20;99.90;;;;;;2114540;28;20028;-71
2022/02/18 03:25:11;;;;;;;6.32;1.80;;;6.20;99.90;;;;;;2114567;28;20050;-72
2022/02/18 03:26:15;;;;;;;7.22;1.98;;;6.20;99.90;;;;;;2114810;28;20395;-71
2022/02/18 03:27:17;;;;;;;8.60;1.90;;;6.20;99.90;;;;;;2115329;27;20024;-72
2022/02/18 03:28:19;;;;;;;5.00;1.60;;;6.20;99.90;;;;;;2114498;28;20510;-72
2022/02/18 03:29:20;;;;;;;6.03;1.90;;;6.20;99.90;;;;;;2106855;28;20052;-72
2022/02/18 03:30:28;;;;;;;7.70;2.00;;;6.10;99.90;;;;;;2107606;28;20046;-71
2022/02/18 03:31:29;;;;;;;5.55;1.70;;;6.10;99.90;;;;;;2107500;28;20579;-72
2022/02/18 03:32:30;;;;;;;6.28;1.77;;;6.10;99.90;;;;;;2106812;28;20059;-72
2022/02/18 03:33:32;;;;;;;6.78;1.77;;;6.20;99.90;;;;;;2106976;27;20016;-71
2022/02/18 03:34:34;;;;;;;5.78;1.73;;;6.10;99.90;;;;;;2114586;28;20027;-71
2022/02/18 03:35:35;;;;;;;5.07;1.70;;;6.10;99.90;;;;;;2114654;27;20020;-71
2022/02/18 03:36:36;;;;;;;6.32;1.80;;;6.10;99.90;;;;;;2114611;28;20086;-71
2022/02/18 03:37:36;;;;;;;7.97;1.67;;;6.10;99.90;;;;;;2106209;28;20459;-71
2022/02/18 03:38:58;;;;;;;4.20;1.55;;;6.10;99.90;;;;;;2111346;27;20619;-71
2022/02/18 03:39:58;;;;;;;7.45;1.70;;;6.10;99.90;;;;;;2114727;28;20036;-71
2022/02/18 03:41:01;;;;;;;4.30;1.65;;;6.10;99.90;;;;;;2123077;27;20122;-71
2022/02/18 03:42:02;;;;;;;4.65;1.40;;;6.10;99.90;;;;;;2114822;28;20038;-71
2022/02/18 03:43:05;;;;;;;3.75;1.60;;;6.10;99.90;;;;;;2114297;28;20048;-71
2022/02/18 03:44:11;;;;;;;5.53;1.60;;;6.10;99.90;;;;;;2107673;27;20040;-71
2022/02/18 03:45:27;;;;;;;5.25;1.65;;;6.10;99.90;;;;;;2116494;27;20034;-70
2022/02/18 03:46:28;;;;;;;2.92;1.40;;;6.10;99.90;;;;;;2114607;28;20057;-71
2022/02/18 03:47:31;;;;;;;4.07;1.70;;;6.10;99.90;;;;;;2114647;27;20028;-70
2022/02/18 03:48:35;;;;;;;3.65;1.50;;;6.10;99.90;;;;;;2122248;27;20027;-70
2022/02/18 03:49:37;;;;;;;3.75;1.45;;;6.00;99.90;;;;;;2114279;27;20023;-70
2022/02/18 03:50:42;;;;;;;4.22;1.40;;;6.00;99.90;;;;;;2114475;28;20043;-70
2022/02/18 03:51:43;;;;;;;3.78;1.40;;;6.00;99.90;;;;;;2122624;27;20467;-70
2022/02/18 03:52:44;;;;;;;3.80;1.50;;;6.00;99.90;;;;;;2122581;27;20030;-70
2022/02/18 03:53:45;;;;;;;3.15;1.40;;;6.00;99.90;;;;;;2122657;27;20023;-71
2022/02/18 03:54:51;;;;;;;3.08;1.30;;;6.00;99.90;;;;;;2122677;27;20034;-71
2022/02/18 03:55:51;;;;;;;3.20;1.40;;;6.00;99.90;;;;;;2114277;28;20023;-71
2022/02/18 03:56:54;;;;;;;5.28;1.65;;;6.00;99.90;;;;;;2114166;28;20088;-71
2022/02/18 03:57:56;;;;;;;3.50;1.33;;;6.00;99.90;;;;;;2122647;27;20494;-71
2022/02/18 03:59:02;;;;;;;3.67;1.50;;;6.00;99.90;;;;;;2122132;27;20027;-71
2022/02/18 04:00:10;;;;;;;3.47;1.40;;;6.00;99.90;;;;;;2114090;28;20145;-71
2022/02/18 04:01:19;;;;;;;4.15;1.50;;;6.00;99.90;;;;;;2122878;27;20015;-71
2022/02/18 04:02:19;;;;;;;3.95;1.60;;;5.90;99.90;;;;;;2122341;27;20046;-71
2022/02/18 04:03:21;;;;;;;3.08;1.60;;;5.90;99.90;;;;;;2122549;27;20085;-71
2022/02/18 04:04:40;;;;;;;3.15;1.30;;;5.90;99.90;;;;;;2122592;27;20150;-71
2022/02/18 04:06:02;;;;;;;3.30;1.40;;;5.90;99.90;;;;;;2123332;27;20034;-71
2022/02/18 04:07:11;;;;;;;3.55;1.40;;;5.80;99.90;;;;;;2122354;27;20027;-71
2022/02/18 04:08:20;;;;;;;6.07;2.00;;;5.80;99.90;;;;;;2121990;27;20730;-71
2022/02/18 04:09:23;;;;;;;3.63;1.67;;;5.70;99.90;;;;;;2114216;27;20596;-71
2022/02/18 04:10:31;;;;;;;4.45;1.80;;;5.70;99.90;;;;;;2122540;27;20024;-70
2022/02/18 04:11:33;;;;;;;4.40;1.83;;;5.70;99.90;;;;;;2105492;28;20520;-70
2022/02/18 04:12:36;;;;;;;4.75;2.10;;;5.60;99.90;;;;;;2106639;27;20061;-69
2022/02/18 04:13:48;;;;;;;6.03;2.10;;;5.50;99.90;;;;;;2115533;27;20032;-69
2022/02/18 04:14:48;;;;;;;7.60;2.20;;;5.50;99.90;;;;;;2114041;28;20016;-69
2022/02/18 04:15:52;;;;;;;4.90;1.77;;;5.40;99.90;;;;;;2114594;28;20379;-69
2022/02/18 04:16:53;;;;;;;3.88;1.92;;;5.40;99.90;;;;;;2122519;27;20105;-69
2022/02/18 04:17:57;;;;;;;7.35;2.05;;;5.30;99.90;;;;;;2114428;27;20023;-69
2022/02/18 04:19:03;;;;;;;5.65;1.80;;;5.20;99.90;;;;;;2114452;27;20073;-69
2022/02/18 04:20:08;;;;;;;4.57;1.70;;;5.20;99.90;;;;;;2114298;27;20465;-69
2022/02/18 04:21:20;;;;;;;4.45;1.50;;;5.20;99.90;;;;;;2115308;27;20073;-69
2022/02/18 04:22:39;;;;;;;5.53;1.75;;;5.20;99.90;;;;;;2116677;27;20122;-71
2022/02/18 04:23:39;;;;;;;4.10;1.52;;;5.10;99.90;;;;;;2114240;28;20789;-71
2022/02/18 04:24:42;;;;;;;4.28;1.60;;;5.10;99.90;;;;;;2114360;27;20035;-71
2022/02/18 04:25:44;;;;;;;3.15;1.60;;;5.10;99.90;;;;;;2122808;27;20035;-71
2022/02/18 04:26:44;;;;;;;3.80;1.50;;;5.00;99.90;;;;;;2123422;27;20038;-71
2022/02/18 04:27:57;;;;;;;5.13;1.70;;;4.90;99.90;;;;;;2123430;27;20515;-70
2022/02/18 04:28:57;;;;;;;6.05;1.70;;;4.90;99.90;;;;;;2123049;27;20053;-69
2022/02/18 04:29:58;;;;;;;5.53;1.80;;;4.90;99.90;;;;;;2123397;27;20864;-69
2022/02/18 04:30:58;;;;;;;5.32;1.70;;;4.90;99.90;;;;;;2123398;27;20038;-70
2022/02/18 04:31:59;;;;;;;3.55;1.50;;;4.80;99.90;;;;;;2122461;27;20019;-69
2022/02/18 04:33:00;;;;;;;4.22;1.70;;;4.80;99.90;;;;;;2122606;27;20078;-69
2022/02/18 04:34:00;;;;;;;5.90;1.70;;;4.80;99.90;;;;;;2122837;27;20031;-69
2022/02/18 04:35:01;;;;;;;4.15;1.50;;;4.80;99.90;;;;;;2122046;27;20031;-71
2022/02/18 04:36:02;;;;;;;6.38;1.70;;;4.70;99.90;;;;;;2122443;27;20046;-72
2022/02/18 04:37:03;;;;;;;5.50;1.88;;;4.70;99.90;;;;;;2122320;27;20027;-71
2022/02/18 04:38:03;;;;;;;8.07;2.45;;;4.70;99.90;;;;;;2122315;27;20038;-71
2022/02/18 04:39:04;;;;;;;9.40;2.00;;;4.70;99.90;;;;;;2122581;27;20036;-71
2022/02/18 04:40:05;;;;;;;8.15;2.00;;;4.70;99.90;;;;;;2122324;27;20053;-71
2022/02/18 04:41:09;;;;;;;4.55;1.98;;;4.70;99.90;;;;;;2122444;27;20501;-70
2022/02/18 04:42:10;;;;;;;4.05;1.77;;;4.70;99.90;;;;;;2113195;28;20062;-71
2022/02/18 04:43:10;;;;;;;7.20;2.10;;;4.70;99.90;;;;;;2113816;28;20512;-71
2022/02/18 04:44:11;;;;;;;6.88;2.13;;;4.70;99.90;;;;;;2122443;27;20035;-71
2022/02/18 04:45:12;;;;;;;8.80;2.10;;;4.70;99.90;;;;;;2122336;27;20081;-71
2022/02/18 04:46:15;;;;;;;8.52;2.22;;;4.70;99.90;;;;;;2122351;27;20518;-71
2022/02/18 04:47:16;;;;;;;12.32;2.75;;;4.80;99.90;;;;;;2122155;27;20047;-71
2022/02/18 04:48:17;;;;;;;9.75;2.38;;;4.90;99.90;;;;;;2121768;27;20027;-70
2022/02/18 04:49:17;;;;;;;10.63;2.50;;;4.90;99.90;;;;;;2113786;28;20545;-70
2022/02/18 04:50:18;;;;;;;9.85;2.50;;;5.00;99.90;;;;;;2122297;27;20091;-70
2022/02/18 04:51:19;;;;;;;9.75;2.40;;;5.10;99.90;;;;;;2122165;27;20042;-70
2022/02/18 04:52:19;;;;;;;8.18;2.30;;;5.10;99.90;;;;;;2122013;27;20625;-70
2022/02/18 04:53:20;;;;;;;6.53;2.03;;;5.20;99.90;;;;;;2122064;27;20034;-70
2022/02/18 04:54:20;;;;;;;7.63;2.13;;;5.20;99.90;;;;;;2122068;27;20148;-70
2022/02/18 04:55:22;;;;;;;9.43;2.40;;;5.20;99.90;;;;;;2122762;27;20030;-70
2022/02/18 04:56:22;;;;;;;6.85;2.15;;;5.20;99.90;;;;;;2123054;27;20054;-70
2022/02/18 04:57:23;;;;;;;6.50;2.40;;;5.30;99.90;;;;;;2122802;27;20061;-71
2022/02/18 04:58:23;;;;;;;6.97;2.20;;;5.40;99.90;;;;;;2121598;27;20031;-71
2022/02/18 04:59:24;;;;;;;8.73;2.10;;;5.40;99.90;;;;;;2122253;27;20043;-70
2022/02/18 05:00:25;;;;;;;10.13;2.40;;;5.50;99.90;;;;;;2122772;27;20027;-70
2022/02/18 05:01:26;;;;;;;10.20;2.58;;;5.50;99.90;;;;;;2121899;27;20035;-71
2022/02/18 05:02:27;;;;;;;8.75;2.55;;;5.60;99.90;;;;;;2122507;27;20035;-70
2022/02/18 05:03:27;;;;;;;8.15;2.60;;;5.60;99.90;;;;;;2122398;27;20034;-71
2022/02/18 05:04:28;;;;;;;9.52;2.45;;;5.70;99.90;;;;;;2122424;27;20027;-70
2022/02/18 05:05:28;;;;;;;6.25;2.15;;;5.80;99.90;;;;;;2123324;27;20053;-70
2022/02/18 05:06:29;;;;;;;7.93;2.20;;;5.80;99.90;;;;;;2122893;27;20034;-70
2022/02/18 05:07:30;;;;;;;8.25;2.13;;;5.90;99.90;;;;;;2123072;27;20027;-71
2022/02/18 05:08:31;;;;;;;8.43;2.40;;;5.90;99.90;;;;;;2122752;27;20035;-70
2022/02/18 05:09:32;;;;;;;7.47;2.25;;;5.90;99.90;;;;;;2122609;27;20078;-71
2022/02/18 05:10:32;;;;;;;10.95;2.33;;;5.90;99.90;;;;;;2122335;27;20031;-70
2022/02/18 05:11:33;;;;;;;10.35;2.50;;;6.00;99.90;;;;;;2122625;27;20025;-71
2022/02/18 05:12:34;;;;;;;10.05;2.60;;;6.00;99.90;;;;;;2122895;27;20031;-71
2022/02/18 05:13:35;;;;;;;8.73;2.35;;;6.00;99.90;;;;;;2123390;27;20015;-70
2022/02/18 05:14:36;;;;;;;7.03;2.38;;;6.10;99.90;;;;;;2122908;27;20458;-70
2022/02/18 05:15:36;;;;;;;9.75;2.40;;;6.10;99.90;;;;;;2123263;27;20015;-70
2022/02/18 05:16:37;;;;;;;9.55;2.10;;;6.10;99.90;;;;;;2122423;27;20454;-70
2022/02/18 05:17:37;;;;;;;10.80;2.40;;;6.10;99.90;;;;;;2122520;27;20039;-70
2022/02/18 05:18:38;;;;;;;9.80;2.20;;;6.10;99.90;;;;;;2122530;27;20116;-70
2022/02/18 05:19:39;;;;;;;10.00;2.60;;;6.10;99.90;;;;;;2113961;28;20122;-70
2022/02/18 05:20:39;;;;;;;8.15;2.40;;;6.10;99.90;;;;;;2113575;28;20028;-70
2022/02/18 05:21:41;;;;;;;5.88;2.10;;;6.10;99.90;;;;;;2121747;27;20509;-70
2022/02/18 05:22:42;;;;;;;8.07;1.98;;;6.20;99.90;;;;;;2121946;27;20069;-71
2022/02/18 05:23:44;;;;;;;8.88;2.03;;;6.20;99.90;;;;;;2122204;27;20035;-70
2022/02/18 05:24:45;;;;;;;6.82;2.10;;;6.20;99.90;;;;;;2122097;27;20031;-70
2022/02/18 05:25:45;;;;;;;6.65;2.20;;;6.20;99.90;;;;;;2122549;27;20440;-70
2022/02/18 05:26:46;;;;;;;7.07;2.30;;;6.20;99.90;;;;;;2122377;27;20027;-70
2022/02/18 05:27:50;;;;;;;7.28;1.90;;;6.20;99.90;;;;;;2123137;27;20067;-70
2022/02/18 05:28:50;;;;;;;7.95;2.13;;;6.20;99.90;;;;;;2122691;27;20081;-70
2022/02/18 05:29:51;;;;;;;10.45;2.38;;;6.20;99.90;;;;;;2123022;27;20015;-71
2022/02/18 05:30:51;;;;;;;6.78;2.00;;;6.20;99.90;;;;;;2123106;27;20051;-70